Time;durP1;ratioP1;P1;durP2;ratioP2;P2;SDS_P1;SDS_P2;PMS_P1;PMS_P2;Temp;Humidity;BMP_temperature;BMP_pressure;BME280_temperature;BME280_humidity;BME280_pressure;Samples;Min_cycle;Max_cycle;Signal;HPM_P1;HPM_P2
2021/09/14 00:09:55;;;;;;;12.60;9.80;;;;;;;10.63;72.67;99745.69;473026;1191;156078;-62
2021/09/14 00:19:58;;;;;;;11.80;8.70;;;;;;;10.51;72.80;99741.33;469885;1195;142539;-60
2021/09/14 00:30:01;;;;;;;13.40;9.70;;;;;;;10.40;73.18;99743.40;456071;1195;141821;-59
2021/09/14 00:40:07;;;;;;;9.20;8.30;;;;;;;10.28;73.36;99741.30;456439;1195;142440;-61
2021/09/14 00:50:10;;;;;;;14.30;8.70;;;;;;;10.14;73.35;99743.70;471695;1194;143609;-59
2021/09/14 01:00:15;;;;;;;9.90;8.90;;;;;;;10.15;73.39;99745.57;472452;1194;142687;-60
2021/09/14 01:10:19;;;;;;;10.30;8.50;;;;;;;10.17;73.43;99745.08;472372;1195;141806;-59
2021/09/14 01:20:22;;;;;;;12.80;9.00;;;;;;;10.10;73.64;99741.29;471613;1194;142797;-60
2021/09/14 01:30:26;;;;;;;10.60;8.70;;;;;;;10.16;73.60;99740.61;472300;1195;142859;-60
2021/09/14 01:40:30;;;;;;;14.60;10.50;;;;;;;10.29;73.69;99741.05;472607;1191;142008;-60
2021/09/14 01:50:33;;;;;;;9.80;8.70;;;;;;;10.41;74.04;99749.30;471534;1194;141549;-61
2021/09/14 02:00:41;;;;;;;10.60;8.30;;;;;;;10.57;74.04;99753.22;472339;1194;141768;-60
2021/09/14 03:02:28;;;;;;;10.60;8.80;;;;;;;9.93;74.56;99745.83;471382;1195;142703;-60
2021/09/14 03:12:31;;;;;;;16.90;10.90;;;;;;;9.80;74.86;99752.16;472735;1194;143576;-60
2021/09/14 03:22:34;;;;;;;13.10;11.40;;;;;;;9.76;75.08;99753.08;472433;1194;141761;-60
2021/09/14 03:32:38;;;;;;;12.00;10.50;;;;;;;9.74;75.38;99753.40;472069;1183;143507;-60
2021/09/14 03:42:42;;;;;;;12.90;10.80;;;;;;;9.76;75.53;99746.95;472768;1194;141442;-60
2021/09/14 03:52:45;;;;;;;19.50;10.70;;;;;;;9.93;75.94;99744.05;469453;1194;141639;-60
2021/09/14 04:02:50;;;;;;;21.50;13.60;;;;;;;10.10;76.07;99749.89;472749;1194;142486;-60
2021/09/14 04:12:53;;;;;;;15.00;12.00;;;;;;;10.28;76.47;99754.76;456862;1194;142389;-59
2021/09/14 04:22:58;;;;;;;16.70;11.30;;;;;;;10.54;76.57;99763.02;471860;1194;142893;-59
2021/09/14 04:33:01;;;;;;;23.80;12.90;;;;;;;10.85;76.46;99765.86;471913;1193;142618;-60
2021/09/14 04:43:04;;;;;;;23.90;14.30;;;;;;;11.27;76.43;99774.29;469629;1194;141742;-60
2021/09/14 04:53:07;;;;;;;17.10;14.40;;;;;;;11.71;75.94;99776.35;468416;1194;146189;-60
2021/09/14 05:03:11;;;;;;;18.80;13.10;;;;;;;12.05;75.69;99785.37;472666;1183;143189;-60
2021/09/14 05:13:14;;;;;;;18.70;13.20;;;;;;;12.33;75.45;99786.90;472375;1194;143236;-61
2021/09/14 05:23:21;;;;;;;22.50;12.30;;;;;;;12.64;75.39;99785.63;471883;1194;142519;-61
2021/09/14 05:33:25;;;;;;;19.40;11.80;;;;;;;12.96;75.16;99785.20;472662;1194;141728;-62
2021/09/14 05:43:29;;;;;;;42.60;17.70;;;;;;;13.26;74.87;99786.76;472388;1194;144219;-60
2021/09/14 05:53:38;;;;;;;22.30;14.40;;;;;;;13.51;74.47;99780.95;471782;1194;141235;-61
2021/09/14 06:03:41;;;;;;;27.80;13.90;;;;;;;13.78;74.36;99775.80;472617;1194;143001;-61
2021/09/14 06:13:44;;;;;;;42.90;15.40;;;;;;;14.26;73.86;99778.37;473009;1190;142120;-61
2021/09/14 06:23:50;;;;;;;44.00;14.70;;;;;;;14.68;73.54;99788.21;472805;1194;141741;-61
2021/09/14 06:33:53;;;;;;;27.90;13.80;;;;;;;15.06;73.04;99796.55;472795;1194;142974;-61
2021/09/14 06:43:58;;;;;;;31.90;13.90;;;;;;;15.42;72.67;99801.27;472050;1194;142524;-58
2021/09/14 06:54:01;;;;;;;24.20;13.40;;;;;;;15.78;72.15;99802.56;472559;1194;145841;-58
2021/09/14 07:04:05;;;;;;;26.50;13.80;;;;;;;16.27;71.20;99795.42;472791;1194;142334;-58
2021/09/14 07:14:08;;;;;;;23.50;13.00;;;;;;;16.83;70.15;99801.97;472270;1190;142131;-57
2021/09/14 07:24:11;;;;;;;21.20;12.20;;;;;;;17.18;69.45;99809.05;472856;1193;145171;-57
2021/09/14 07:34:14;;;;;;;23.50;12.10;;;;;;;17.53;68.97;99820.80;472705;1194;142051;-62
2021/09/14 07:44:18;;;;;;;15.00;11.20;;;;;;;17.85;68.52;99829.08;456805;1194;142343;-58
2021/09/14 07:54:22;;;;;;;11.10;8.90;;;;;;;18.35;67.75;99826.73;472573;1194;141013;-61
2021/09/14 08:04:25;;;;;;;38.80;9.20;;;;;;;19.15;66.50;99826.16;472697;1194;141259;-61
2021/09/14 08:14:28;;;;;;;7.80;6.10;;;;;;;19.79;64.94;99834.05;472118;1184;142008;-57
2021/09/14 08:24:31;;;;;;;8.90;7.60;;;;;;;20.19;64.11;99840.36;472887;1194;144682;-58
2021/09/14 08:34:34;;;;;;;12.70;7.80;;;;;;;20.88;62.83;99838.01;472858;1193;140963;-62
2021/09/14 08:44:40;;;;;;;12.50;8.50;;;;;;;21.95;61.45;99838.38;472045;1194;141675;-62
2021/09/14 08:54:49;;;;;;;10.20;7.10;;;;;;;22.53;59.26;99844.15;473138;1182;141525;-64
2021/09/14 09:04:57;;;;;;;16.50;6.90;;;;;;;22.98;58.03;99843.56;472131;1194;143806;-63
2021/09/14 09:15:01;;;;;;;7.90;6.90;;;;;;;23.43;56.56;99844.60;473012;1194;141645;-63
2021/09/14 09:25:06;;;;;;;7.00;5.60;;;;;;;23.86;55.42;99846.58;472892;1194;142303;-63
2021/09/14 09:35:11;;;;;;;6.90;4.70;;;;;;;23.21;54.72;99850.08;456007;1194;10001761;-64
2021/09/14 09:45:18;;;;;;;4.20;3.90;;;;;;;23.12;54.93;99850.84;472856;1191;140993;-63
2021/09/14 09:55:22;;;;;;;4.30;2.80;;;;;;;23.48;53.83;99844.45;462856;1184;141600;-62
2021/09/14 10:05:30;;;;;;;3.40;3.00;;;;;;;23.30;53.01;99839.48;472061;1194;140604;-62
2021/09/14 10:15:40;;;;;;;14.70;7.10;;;;;;;23.08;52.90;99846.46;472829;1194;141085;-63
2021/09/14 10:25:49;;;;;;;11.20;3.50;;;;;;;22.84;52.99;99845.48;461399;1194;141440;-62
2021/09/14 10:35:53;;;;;;;3.70;2.30;;;;;;;23.15;52.90;99841.54;472758;1193;141371;-57
2021/09/14 10:45:58;;;;;;;5.50;2.70;;;;;;;23.51;51.73;99832.84;472880;1182;141360;-58
2021/09/14 10:56:03;;;;;;;3.30;1.70;;;;;;;23.86;50.76;99836.55;465377;1194;142732;-58
2021/09/14 11:06:10;;;;;;;15.60;2.90;;;;;;;23.81;49.13;99836.62;470878;1194;141609;-59
2021/09/14 11:16:16;;;;;;;8.10;2.10;;;;;;;23.26;48.73;99835.44;470616;1194;144902;-59
2021/09/14 11:26:21;;;;;;;2.40;1.80;;;;;;;22.79;48.70;99831.05;471978;1194;141304;-60
2021/09/14 11:36:26;;;;;;;5.30;2.50;;;;;;;22.64;48.99;99822.27;468326;1194;140824;-52
2021/09/14 11:46:29;;;;;;;3.70;2.50;;;;;;;22.33;50.02;99818.67;460015;1194;141168;-62
2021/09/14 11:56:32;;;;;;;2.70;2.10;;;;;;;22.05;50.63;99816.83;468414;1194;141800;-59
2021/09/14 12:06:35;;;;;;;3.50;2.40;;;;;;;22.07;50.22;99815.73;469232;1195;140563;-49
2021/09/14 12:16:40;;;;;;;5.00;2.70;;;;;;;22.01;49.76;99811.58;458235;1195;141934;-52
2021/09/14 12:26:45;;;;;;;4.60;2.90;;;;;;;21.79;50.19;99810.51;466585;1194;142073;-50
2021/09/14 12:36:50;;;;;;;7.10;2.50;;;;;;;21.75;50.46;99814.37;455944;1200;140840;-58
2021/09/14 12:46:55;;;;;;;3.80;2.60;;;;;;;21.94;50.24;99804.70;472120;1194;140768;-62
2021/09/14 12:57:01;;;;;;;;;;;;;;;21.79;50.21;99804.73;472938;1194;141488;-56
2021/09/14 13:07:04;;;;;;;4.60;2.40;;;;;;;21.69;50.34;99793.79;473366;1192;129069;-55
2021/09/14 13:17:09;;;;;;;4.00;2.30;;;;;;;21.60;50.62;99796.34;471778;1195;141033;-56
2021/09/14 13:27:13;;;;;;;5.90;3.60;;;;;;;21.68;50.38;99791.91;471214;1194;141523;-57
2021/09/14 13:37:16;;;;;;;2.80;2.20;;;;;;;21.81;50.14;99791.66;462511;1195;140315;-57
2021/09/14 13:47:20;;;;;;;4.00;2.50;;;;;;;21.59;49.97;99786.48;461783;1194;141205;-59
2021/09/14 13:57:23;;;;;;;5.30;3.60;;;;;;;21.69;49.94;99784.23;472965;1194;140818;-58
2021/09/14 14:07:26;;;;;;;7.80;2.70;;;;;;;21.44;50.09;99785.23;472901;1195;141121;-61
2021/09/14 14:17:29;;;;;;;11.10;2.90;;;;;;;21.61;50.69;99778.60;472067;1194;141095;-57
2021/09/14 14:27:33;;;;;;;12.50;3.60;;;;;;;22.02;50.30;99771.38;472800;1193;140787;-58
2021/09/14 14:37:36;;;;;;;4.80;2.40;;;;;;;22.06;49.78;99770.94;472788;1194;141662;-60
2021/09/14 14:47:39;;;;;;;9.90;2.90;;;;;;;21.85;49.75;99773.08;470119;1194;142419;-57
2021/09/14 14:57:43;;;;;;;5.80;2.60;;;;;;;21.57;49.58;99763.54;472445;1195;141239;-57
2021/09/14 15:07:46;;;;;;;4.50;3.20;;;;;;;21.21;49.60;99758.09;472519;1194;140700;-61
2021/09/14 15:17:49;;;;;;;4.40;3.00;;;;;;;20.75;49.70;99756.42;472879;1194;143323;-60
2021/09/14 15:27:52;;;;;;;14.50;3.70;;;;;;;20.36;50.51;99755.63;458853;1195;140628;-60
2021/09/14 15:37:57;;;;;;;21.50;4.40;;;;;;;20.25;51.56;99752.90;454569;1193;20002558;-61
2021/09/14 15:48:00;;;;;;;24.60;4.90;;;;;;;19.90;52.62;99745.52;472264;1193;141292;-59
2021/09/14 15:58:05;;;;;;;7.20;2.90;;;;;;;19.61;52.61;99748.19;455970;1199;140979;-58
2021/09/14 16:08:09;;;;;;;6.90;4.00;;;;;;;19.40;53.51;99746.91;468233;1194;196901;-62
2021/09/14 16:18:12;;;;;;;9.00;4.30;;;;;;;19.20;55.03;99749.73;460838;1193;140319;-61
2021/09/14 16:28:16;;;;;;;8.30;4.60;;;;;;;18.71;56.50;99753.71;455831;1198;140940;-62
2021/09/14 16:38:20;;;;;;;11.00;5.90;;;;;;;18.13;57.99;99757.13;471628;1194;141730;-62
2021/09/14 16:48:22;;;;;;;6.20;5.20;;;;;;;17.69;59.05;99761.52;472718;1194;198179;-62
2021/09/14 16:58:26;;;;;;;11.30;5.70;;;;;;;17.31;60.03;99761.71;472509;1194;142406;-62
2021/09/14 17:08:31;;;;;;;7.20;6.40;;;;;;;16.97;61.05;99766.08;455513;1195;143606;-61
2021/09/14 17:18:36;;;;;;;7.60;6.10;;;;;;;16.64;61.95;99768.06;471045;1194;142110;-61
2021/09/14 17:28:40;;;;;;;7.90;6.70;;;;;;;16.33;62.80;99772.83;462272;1195;142276;-62
2021/09/14 17:38:44;;;;;;;11.70;7.50;;;;;;;16.06;63.73;99777.91;469319;1194;141254;-63
2021/09/14 17:48:49;;;;;;;11.30;7.00;;;;;;;15.84;64.64;99779.02;458994;1194;142359;-57
2021/09/14 17:58:52;;;;;;;13.00;8.90;;;;;;;15.64;65.32;99778.64;468862;1191;141669;-58
2021/09/14 18:08:55;;;;;;;13.20;10.30;;;;;;;15.44;65.99;99784.85;456524;1194;140527;-59
2021/09/14 18:18:59;;;;;;;18.70;15.20;;;;;;;15.25;66.62;99788.90;464811;1194;142525;-59
2021/09/14 18:29:02;;;;;;;22.20;13.20;;;;;;;15.04;67.18;99786.15;470136;1194;142606;-60
2021/09/14 18:39:05;;;;;;;15.80;12.30;;;;;;;14.84;67.87;99785.54;456793;1194;142932;-59
2021/09/14 18:49:10;;;;;;;18.30;13.70;;;;;;;14.61;68.31;99780.09;469662;1194;142079;-57
2021/09/14 18:59:15;;;;;;;19.80;14.30;;;;;;;14.36;68.83;99788.52;467499;1194;142058;-58
2021/09/14 19:09:19;;;;;;;23.70;13.00;;;;;;;14.23;69.38;99790.18;466548;1190;143211;-58
2021/09/14 19:19:22;;;;;;;27.00;17.00;;;;;;;14.01;69.38;99790.30;456619;1197;146094;-57
2021/09/14 19:29:26;;;;;;;23.00;12.90;;;;;;;13.81;69.75;99798.94;471732;1194;143823;-56
2021/09/14 19:39:29;;;;;;;20.30;11.10;;;;;;;13.63;70.25;99802.58;464633;1194;141645;-57
2021/09/14 19:49:32;;;;;;;19.90;12.10;;;;;;;13.36;69.97;99803.23;456304;1195;143594;-59
2021/09/14 19:59:35;;;;;;;15.20;10.50;;;;;;;13.05;70.09;99798.79;471340;1194;141922;-59
2021/09/14 20:09:39;;;;;;;21.20;11.50;;;;;;;12.80;70.39;99802.45;472560;1193;142414;-58
2021/09/14 20:19:43;;;;;;;14.10;11.10;;;;;;;12.61;70.53;99797.98;471501;1194;142188;-58
2021/09/14 20:29:48;;;;;;;18.10;11.50;;;;;;;12.40;70.95;99799.90;465633;1194;141456;-57
2021/09/14 20:39:51;;;;;;;17.40;12.60;;;;;;;12.33;71.78;99801.45;466247;1194;142048;-57
2021/09/14 20:49:54;;;;;;;17.10;12.00;;;;;;;12.30;72.62;99796.05;466164;1194;141398;-58
2021/09/14 20:59:57;;;;;;;17.20;12.30;;;;;;;12.21;72.31;99794.00;472707;1194;143255;-59
2021/09/14 21:10:00;;;;;;;16.90;11.50;;;;;;;12.08;72.34;99798.19;471353;1194;141658;-58
2021/09/14 21:20:05;;;;;;;16.90;12.10;;;;;;;12.02;72.98;99794.73;471764;1194;142592;-58
2021/09/14 21:30:12;;;;;;;16.00;11.50;;;;;;;12.03;73.38;99792.02;463432;1194;141424;-58
2021/09/14 21:40:15;;;;;;;14.20;11.90;;;;;;;11.95;73.20;99792.02;468623;1194;141841;-53
2021/09/14 21:50:19;;;;;;;15.80;13.30;;;;;;;11.77;73.07;99790.52;461066;1194;146260;-56
2021/09/14 22:00:36;;;;;;;15.90;13.20;;;;;;;11.69;73.67;99792.11;460576;1194;142412;-52
2021/09/14 22:10:39;;;;;;;14.90;11.80;;;;;;;11.61;73.78;99791.24;470855;1193;141561;-56
2021/09/14 22:20:42;;;;;;;16.90;11.80;;;;;;;11.51;73.91;99790.95;472030;1194;142947;-56
2021/09/14 22:30:45;;;;;;;14.10;11.90;;;;;;;11.45;74.14;99782.27;472789;1194;142218;-54
2021/09/14 22:40:48;;;;;;;20.70;11.60;;;;;;;11.44;74.68;99782.48;470319;1194;142042;-54
2021/09/14 22:50:52;;;;;;;15.20;11.60;;;;;;;11.45;74.99;99790.16;472910;1194;142103;-53
2021/09/14 23:00:56;;;;;;;15.20;13.60;;;;;;;11.50;75.45;99783.17;473040;1185;142942;-55
2021/09/14 23:10:59;;;;;;;18.80;14.40;;;;;;;11.59;75.95;99775.90;471752;1194;142571;-54
2021/09/14 23:21:02;;;;;;;18.00;14.10;;;;;;;11.64;76.11;99773.69;472743;1194;143922;-55
2021/09/14 23:31:06;;;;;;;13.70;10.40;;;;;;;11.59;75.80;99766.09;471447;1194;141349;-55
2021/09/14 23:41:09;;;;;;;15.50;12.90;;;;;;;11.49;75.57;99760.05;472090;1193;144480;-55
2021/09/14 23:51:13;;;;;;;12.00;10.20;;;;;;;11.43;75.65;99764.35;472818;1194;142233;-55
